Shives, Arkansas
Current Conditions -  °F | °C
As of 3:53 PM on Monday 24 Nov 2014 (Local Time) from KGLH Reporting Station
Clear Clear  
Wind Chill: 59°   Ceiling: Unl
Heat Index: 59°   Visibility: 7mi
Dew Point: 33°   Wind: 7mph
Humidity: 38%   Direction: 260°W
Pressure: 29.97"   Gusts: NA
Location:  33.3324°N, 91.3183°W
Report Text: KGLH 242153Z AUTO 26006KT 7SM CLR 15/01 A2997 RMK AO2 SLP157 T01500006
Loading
Personal Weather Stations






























Interactive Weather Map New forecast layout! Learn more

10-Day Weather Forecast

Advertisements
Track Severe Weather on mobile